Time;durP1;ratioP1;P1;durP2;ratioP2;P2;SDS_P1;SDS_P2;PMS_P1;PMS_P2;Temp;Humidity;BMP_temperature;BMP_pressure;BME280_temperature;BME280_humidity;BME280_pressure;Samples;Min_cycle;Max_cycle;Signal;HPM_P1;HPM_P2
2023/11/29 00:08:05;;;;;;;7.32;3.53;;;3.10;99.90;;;;;;20477429;28;20040;-83
2023/11/29 00:18:19;;;;;;;7.50;3.35;;;3.00;99.90;;;;;;20509504;28;20562;-84
2023/11/29 00:28:20;;;;;;;6.10;3.10;;;3.00;99.90;;;;;;20517253;28;20060;-83
2023/11/29 00:38:27;;;;;;;5.60;2.20;;;3.00;99.90;;;;;;20477691;28;20047;-83
2023/11/29 00:48:33;;;;;;;5.90;2.08;;;3.10;99.90;;;;;;20504013;28;20043;-80
2023/11/29 00:58:34;;;;;;;3.53;1.90;;;3.50;99.90;;;;;;20451852;28;20050;-78
2023/11/29 01:08:35;;;;;;;4.22;2.20;;;3.30;99.90;;;;;;20438437;28;20046;-78
2023/11/29 01:18:41;;;;;;;5.68;2.10;;;3.10;99.90;;;;;;20455354;28;20039;-79
2023/11/29 01:28:42;;;;;;;4.35;2.42;;;3.10;99.90;;;;;;20452877;28;20457;-79
2023/11/29 01:38:43;;;;;;;9.20;2.00;;;3.10;99.90;;;;;;20476007;28;20546;-79
2023/11/29 01:48:49;;;;;;;5.30;1.50;;;3.20;99.90;;;;;;20429692;28;20046;-79
2023/11/29 01:58:49;;;;;;;3.97;1.02;;;3.50;99.90;;;;;;20435255;28;20035;-79
2023/11/29 02:08:50;;;;;;;5.80;1.63;;;3.70;99.90;;;;;;20441806;28;20058;-80
2023/11/29 02:18:54;;;;;;;3.20;1.42;;;3.70;99.90;;;;;;20414609;28;20043;-79
2023/11/29 02:29:00;;;;;;;7.03;1.50;;;3.50;99.90;;;;;;20473678;28;20113;-79
2023/11/29 02:39:01;;;;;;;5.10;1.23;;;3.90;99.90;;;;;;20557866;28;20504;-80
2023/11/29 02:49:02;;;;;;;3.07;0.67;;;3.90;99.90;;;;;;20554553;28;20505;-80
2023/11/29 02:59:05;;;;;;;4.00;0.80;;;3.90;99.90;;;;;;20514218;28;20450;-79
2023/11/29 03:09:07;;;;;;;3.95;0.90;;;3.90;99.90;;;;;;20549206;28;20435;-80
2023/11/29 03:19:07;;;;;;;3.03;0.80;;;3.80;99.90;;;;;;20521692;28;20065;-81
2023/11/29 03:29:14;;;;;;;3.55;0.52;;;4.00;98.50;;;;;;20541828;28;20114;-79
2023/11/29 03:39:17;;;;;;;4.43;0.88;;;4.00;91.20;;;;;;20528204;28;20472;-80
2023/11/29 03:49:19;;;;;;;7.15;1.25;;;4.10;87.00;;;;;;20547365;28;20053;-77
2023/11/29 03:59:19;;;;;;;6.38;1.27;;;3.90;93.50;;;;;;20534666;28;20137;-80
2023/11/29 04:09:30;;;;;;;5.80;1.05;;;3.80;99.90;;;;;;20489141;28;20130;-79
2023/11/29 04:19:31;;;;;;;5.68;1.50;;;4.10;99.90;;;;;;20485020;28;20119;-80
2023/11/29 04:29:32;;;;;;;4.10;0.50;;;4.10;96.20;;;;;;20493014;28;20122;-80
2023/11/29 04:39:33;;;;;;;6.00;0.82;;;4.10;77.40;;;;;;20452911;28;20054;-80
2023/11/29 04:49:34;;;;;;;10.02;0.80;;;4.10;42.40;;;;;;20450405;28;20122;-81
2023/11/29 04:59:45;;;;;;;3.35;0.50;;;4.00;48.00;;;;;;20469355;28;20063;-78
2023/11/29 05:09:47;;;;;;;1.20;0.38;;;3.80;54.80;;;;;;20489965;28;20039;-79
2023/11/29 05:19:48;;;;;;;2.33;0.20;;;3.90;78.20;;;;;;20517195;28;20043;-81
2023/11/29 05:29:49;;;;;;;1.17;0.15;;;4.00;56.90;;;;;;20482330;28;20054;-81
2023/11/29 05:39:55;;;;;;;1.10;0.20;;;4.00;42.20;;;;;;20487605;28;20126;-79
2023/11/29 05:50:01;;;;;;;3.47;0.37;;;3.70;60.50;;;;;;20465965;28;20434;-80
2023/11/29 06:00:08;;;;;;;3.57;0.30;;;3.50;79.30;;;;;;20466540;28;20441;-79
2023/11/29 06:10:09;;;;;;;6.45;0.60;;;3.50;90.10;;;;;;20469929;28;20094;-81
2023/11/29 06:20:15;;;;;;;3.97;0.63;;;3.60;99.90;;;;;;20457956;28;20066;-80
2023/11/29 06:30:20;;;;;;;3.88;0.70;;;3.70;99.90;;;;;;20475914;28;20043;-77
2023/11/29 06:40:20;;;;;;;3.70;0.70;;;3.70;99.90;;;;;;20447161;28;20040;-82
2023/11/29 06:50:35;;;;;;;6.35;2.50;;;3.80;99.90;;;;;;20463951;28;20090;-86
2023/11/29 07:00:36;;;;;;;4.47;2.45;;;3.80;99.90;;;;;;20432082;28;20070;-83
2023/11/29 07:10:42;;;;;;;5.32;1.50;;;3.60;99.90;;;;;;20474139;28;20420;-83
2023/11/29 07:20:43;;;;;;;11.10;6.03;;;3.70;99.90;;;;;;20447668;28;20039;-83
2023/11/29 07:30:47;;;;;;;7.28;1.98;;;3.70;99.90;;;;;;20454601;28;20511;-83
2023/11/29 07:40:48;;;;;;;7.40;2.28;;;3.60;99.90;;;;;;20436398;28;20122;-83
2023/11/29 07:50:54;;;;;;;4.97;1.70;;;3.40;99.90;;;;;;20435249;28;20043;-82
2023/11/29 08:01:01;;;;;;;8.02;2.03;;;3.30;99.90;;;;;;20436558;28;20501;-79
2023/11/29 08:11:05;;;;;;;8.02;3.00;;;3.20;99.90;;;;;;20512037;28;20105;-81
2023/11/29 08:21:11;;;;;;;9.05;4.35;;;3.10;99.90;;;;;;20508325;28;20039;-81
2023/11/29 08:31:18;;;;;;;8.97;2.10;;;3.10;99.90;;;;;;20504175;28;20087;-81
2023/11/29 08:41:19;;;;;;;4.68;1.92;;;3.10;99.90;;;;;;20498543;28;20130;-81
2023/11/29 08:51:20;;;;;;;10.15;2.05;;;3.20;99.90;;;;;;20526491;28;20138;-82
2023/11/29 09:01:20;;;;;;;8.02;1.73;;;3.30;99.90;;;;;;20495544;28;20035;-85
2023/11/29 09:11:24;;;;;;;8.27;1.83;;;3.40;99.90;;;;;;20488828;28;20039;-85
2023/11/29 09:21:30;;;;;;;4.70;1.30;;;3.80;99.90;;;;;;20426709;28;20044;-86
2023/11/29 09:31:39;;;;;;;5.40;1.35;;;3.70;92.00;;;;;;20435986;28;20509;-88
2023/11/29 09:41:43;;;;;;;3.35;1.10;;;3.70;91.70;;;;;;20516217;28;20086;-85
2023/11/29 09:51:46;;;;;;;4.57;0.98;;;3.70;96.40;;;;;;20469338;28;20043;-85
2023/11/29 10:01:47;;;;;;;5.05;1.20;;;3.80;95.30;;;;;;20465744;28;20103;-85
2023/11/29 10:11:48;;;;;;;4.65;1.00;;;4.10;97.80;;;;;;20416076;28;20480;-81
2023/11/29 10:21:53;;;;;;;2.75;0.80;;;4.40;49.10;;;;;;20429195;28;20067;-82
2023/11/29 10:31:57;;;;;;;13.27;7.05;;;4.30;42.70;;;;;;20441015;28;20050;-81
2023/11/29 10:42:01;;;;;;;13.05;6.43;;;4.60;39.10;;;;;;20452396;28;20035;-81
2023/11/29 10:52:05;;;;;;;4.32;1.23;;;4.90;24.10;;;;;;20449176;28;20043;-81
2023/11/29 11:02:09;;;;;;;7.43;1.20;;;4.70;17.90;;;;;;20439494;28;20466;-79
2023/11/29 11:12:33;;;;;;;3.28;1.73;;;4.40;16.60;;;;;;20454979;28;20110;-79
2023/11/29 11:22:44;;;;;;;3.75;1.33;;;4.30;14.60;;;;;;20497555;28;20298;-85
2023/11/29 11:32:49;;;;;;;6.22;2.97;;;4.20;13.30;;;;;;20497489;28;20042;-81
2023/11/29 11:42:50;;;;;;;10.13;4.88;;;4.30;11.20;;;;;;20539092;28;20057;-83
2023/11/29 11:52:52;;;;;;;5.63;1.75;;;4.30;15.00;;;;;;20523412;28;20480;-84
2023/11/29 12:02:58;;;;;;;2.13;1.23;;;4.10;25.40;;;;;;20450388;28;20031;-82
2023/11/29 12:13:01;;;;;;;5.10;1.33;;;3.90;40.80;;;;;;20451375;28;20051;-83
2023/11/29 12:23:02;;;;;;;2.10;0.90;;;3.80;50.50;;;;;;20442366;28;20127;-84
2023/11/29 12:33:02;;;;;;;6.45;2.72;;;3.80;53.20;;;;;;20449478;28;20044;-87
2023/11/29 12:43:03;;;;;;;3.15;1.70;;;3.90;46.20;;;;;;20458468;28;20118;-87
2023/11/29 12:53:05;;;;;;;2.05;1.00;;;5.00;56.10;;;;;;20461698;28;20047;-84
2023/11/29 13:03:11;;;;;;;2.15;0.63;;;5.80;4.70;;;;;;20466697;28;20050;-88
2023/11/29 13:13:30;;;;;;;2.00;0.80;;;5.20;1.00;;;;;;20469072;28;20028;-85
2023/11/29 13:23:37;;;;;;;14.07;7.63;;;5.00;6.40;;;;;;20459262;28;20122;-86
2023/11/29 13:33:43;;;;;;;2.13;0.90;;;4.80;4.90;;;;;;20440001;28;20047;-86
2023/11/29 13:43:47;;;;;;;4.00;2.00;;;4.60;1.00;;;;;;20477673;28;20408;-85
2023/11/29 13:53:51;;;;;;;6.65;1.30;;;4.60;3.00;;;;;;20469293;28;20085;-85
2023/11/29 14:03:57;;;;;;;3.05;1.20;;;4.40;8.20;;;;;;20506747;28;20067;-86
2023/11/29 14:14:20;;;;;;;3.93;1.50;;;4.40;17.00;;;;;;20424155;28;20047;-85
2023/11/29 14:24:21;;;;;;;3.88;1.70;;;4.40;17.60;;;;;;20487195;28;20027;-81
2023/11/29 14:34:22;;;;;;;6.15;2.13;;;4.30;15.70;;;;;;20574930;28;20035;-81
2023/11/29 14:44:32;;;;;;;5.13;2.70;;;4.20;29.90;;;;;;20495124;28;20054;-84
2023/11/29 14:54:32;;;;;;;6.22;2.60;;;4.20;38.10;;;;;;20442262;28;20039;-83
2023/11/29 15:04:53;;;;;;;4.32;2.38;;;4.20;32.90;;;;;;20439067;28;20043;-85
2023/11/29 15:14:54;;;;;;;4.65;2.33;;;4.10;31.70;;;;;;20450655;28;20035;-83
2023/11/29 15:25:04;;;;;;;6.60;2.77;;;4.10;31.10;;;;;;20461420;28;20051;-89
2023/11/29 15:35:05;;;;;;;4.95;2.58;;;4.10;30.80;;;;;;20458215;28;20607;-85
2023/11/29 15:45:09;;;;;;;4.13;1.98;;;4.00;28.40;;;;;;20440913;28;20042;-84
2023/11/29 15:55:10;;;;;;;8.02;3.05;;;3.90;29.90;;;;;;20430943;28;20516;-84
2023/11/29 16:05:15;;;;;;;6.35;3.25;;;3.90;32.20;;;;;;20482915;28;20825;-84
2023/11/29 16:15:16;;;;;;;5.70;3.47;;;3.80;41.30;;;;;;20529854;28;20199;-84
2023/11/29 16:25:16;;;;;;;12.68;5.95;;;3.70;53.90;;;;;;20486018;28;20046;-83
2023/11/29 16:35:54;;;;;;;5.68;3.58;;;3.70;66.60;;;;;;20498120;28;20043;-89
2023/11/29 16:46:02;;;;;;;6.00;3.90;;;3.60;82.50;;;;;;20453811;28;20110;-82
2023/11/29 16:56:04;;;;;;;8.50;4.57;;;3.50;95.40;;;;;;20455558;28;20047;-86
2023/11/29 17:06:05;;;;;;;7.75;3.70;;;3.60;94.30;;;;;;20453760;28;20130;-84
2023/11/29 17:16:06;;;;;;;6.88;3.65;;;3.70;89.90;;;;;;20441568;28;20130;-85
2023/11/29 17:26:07;;;;;;;7.22;4.07;;;3.50;93.60;;;;;;20431890;28;20039;-83
2023/11/29 17:36:08;;;;;;;12.50;7.30;;;3.50;95.70;;;;;;20424917;28;20170;-83
2023/11/29 17:46:15;;;;;;;12.25;5.75;;;3.40;92.00;;;;;;20434321;28;20048;-85
2023/11/29 17:56:16;;;;;;;7.93;4.32;;;3.40;98.40;;;;;;20434166;28;20170;-84
2023/11/29 18:06:18;;;;;;;8.15;3.58;;;3.40;90.70;;;;;;20430485;28;20055;-84
2023/11/29 18:16:26;;;;;;;7.22;3.25;;;3.30;95.70;;;;;;20438495;28;20067;-85
2023/11/29 18:26:27;;;;;;;7.38;3.65;;;3.20;97.90;;;;;;20513909;28;20039;-84
2023/11/29 18:36:36;;;;;;;7.88;3.65;;;3.20;99.90;;;;;;20527034;28;20126;-87
2023/11/29 18:46:37;;;;;;;11.05;4.38;;;3.10;99.90;;;;;;20484694;28;20074;-85
2023/11/29 18:56:38;;;;;;;8.20;3.90;;;3.10;99.90;;;;;;20485798;28;20031;-84
2023/11/29 19:06:42;;;;;;;7.70;3.90;;;3.00;99.90;;;;;;20474941;28;20039;-85
2023/11/29 19:16:43;;;;;;;8.07;3.88;;;2.90;99.90;;;;;;20485289;28;20068;-85
2023/11/29 19:26:46;;;;;;;6.60;4.10;;;2.70;99.90;;;;;;20458383;28;20055;-83
2023/11/29 19:36:47;;;;;;;7.03;4.00;;;2.50;99.90;;;;;;20399345;28;20040;-84
2023/11/29 19:46:47;;;;;;;11.20;3.80;;;2.40;99.90;;;;;;20461818;28;20123;-85
2023/11/29 19:56:48;;;;;;;6.07;3.50;;;2.20;99.90;;;;;;20455985;28;20143;-85
2023/11/29 20:06:49;;;;;;;7.15;3.78;;;2.20;99.90;;;;;;20415645;28;20512;-85
2023/11/29 20:16:50;;;;;;;9.35;4.25;;;2.30;99.90;;;;;;20426389;28;20044;-85
2023/11/29 20:26:51;;;;;;;6.97;4.23;;;2.40;99.90;;;;;;20484132;28;20101;-85
2023/11/29 20:36:51;;;;;;;8.10;4.32;;;2.50;99.90;;;;;;20490487;28;20542;-85
2023/11/29 20:46:53;;;;;;;7.28;3.63;;;2.70;99.90;;;;;;20472330;28;20061;-85
2023/11/29 20:57:02;;;;;;;9.48;4.60;;;2.70;99.90;;;;;;20521472;28;20031;-86
2023/11/29 21:07:12;;;;;;;11.32;4.45;;;2.70;99.90;;;;;;20479172;28;20528;-84
2023/11/29 21:17:12;;;;;;;9.15;4.82;;;2.70;99.90;;;;;;20470433;28;20050;-83
2023/11/29 21:27:13;;;;;;;8.20;4.85;;;2.70;99.90;;;;;;20524482;28;20039;-84
2023/11/29 21:37:18;;;;;;;9.82;5.72;;;2.70;99.90;;;;;;20523240;28;20122;-84
2023/11/29 21:47:25;;;;;;;8.30;4.78;;;2.80;99.90;;;;;;20521841;28;20050;-83
2023/11/29 21:57:26;;;;;;;11.82;4.22;;;2.80;99.90;;;;;;20465556;28;20521;-84
2023/11/29 22:07:26;;;;;;;7.95;4.53;;;2.80;99.90;;;;;;20433819;28;20376;-84
2023/11/29 22:17:28;;;;;;;6.22;3.70;;;2.70;99.90;;;;;;20442347;28;20444;-84
2023/11/29 22:27:32;;;;;;;7.68;4.40;;;2.50;99.90;;;;;;20434937;28;20421;-83
2023/11/29 22:37:41;;;;;;;9.48;5.93;;;2.50;99.90;;;;;;20430845;28;20111;-84
2023/11/29 22:47:51;;;;;;;10.45;5.53;;;2.50;99.90;;;;;;20446912;28;20082;-84
2023/11/29 22:58:00;;;;;;;10.63;5.93;;;2.60;99.90;;;;;;20467837;28;20674;-85
2023/11/29 23:08:13;;;;;;;11.48;5.95;;;2.50;99.90;;;;;;20473044;28;20051;-85
2023/11/29 23:18:16;;;;;;;9.90;5.68;;;2.50;99.90;;;;;;20490522;28;20043;-85
2023/11/29 23:28:20;;;;;;;9.93;5.50;;;2.60;99.90;;;;;;20481960;28;20042;-84
2023/11/29 23:38:50;;;;;;;10.35;5.60;;;2.60;99.90;;;;;;20469550;28;20930;-84
2023/11/29 23:48:51;;;;;;;12.43;6.65;;;2.70;99.90;;;;;;20495618;28;20055;-85
2023/11/29 23:59:12;;;;;;;10.98;7.13;;;2.70;99.90;;;;;;20455652;28;20047;-85
